Time;durP1;ratioP1;P1;durP2;ratioP2;P2;SDS_P1;SDS_P2;PMS_P1;PMS_P2;Temp;Humidity;BMP_temperature;BMP_pressure;BME280_temperature;BME280_humidity;BME280_pressure;Samples;Min_cycle;Max_cycle;Signal;HPM_P1;HPM_P2
2022/10/09 00:03:31;;;;;;;24.23;11.15;;;;;;;;;;8306456;28;20050;-90
2022/10/09 00:07:34;;;;;;;22.52;11.35;;;;;;;;;;8300619;28;20046;-89
2022/10/09 00:11:36;;;;;;;24.55;11.75;;;;;;;;;;8300335;28;20554;-90
2022/10/09 00:15:41;;;;;;;23.88;11.77;;;;;;;;;;8309599;28;20049;-90
2022/10/09 00:19:44;;;;;;;39.15;12.88;;;;;;;;;;8301745;28;20568;-89
2022/10/09 00:23:46;;;;;;;31.15;12.73;;;;;;;;;;8302206;28;20060;-88
2022/10/09 00:27:49;;;;;;;30.83;13.77;;;;;;;;;;8302985;28;20038;-90
2022/10/09 00:31:52;;;;;;;28.98;12.23;;;;;;;;;;8300470;28;20138;-89
2022/10/09 00:35:55;;;;;;;25.08;12.27;;;;;;;;;;8307694;28;20477;-89
2022/10/09 00:39:58;;;;;;;28.70;12.00;;;;;;;;;;8302307;28;20121;-90
2022/10/09 00:44:02;;;;;;;25.10;10.57;;;;;;;;;;8301317;28;20049;-88
2022/10/09 00:48:08;;;;;;;31.15;13.07;;;;;;;;;;8301535;28;20045;-89
2022/10/09 00:52:11;;;;;;;26.55;11.82;;;;;;;;;;8298779;28;20069;-90
2022/10/09 00:56:13;;;;;;;34.10;11.80;;;;;;;;;;8297539;28;20489;-89
2022/10/09 01:00:16;;;;;;;25.55;11.18;;;;;;;;;;8297565;28;20058;-88
2022/10/09 01:04:20;;;;;;;29.25;12.43;;;;;;;;;;8312123;28;20128;-89
2022/10/09 01:08:28;;;;;;;32.67;14.98;;;;;;;;;;8298331;28;20045;-89
2022/10/09 01:12:40;;;;;;;29.20;10.32;;;;;;;;;;8299105;28;20044;-89
2022/10/09 01:16:47;;;;;;;36.90;10.77;;;;;;;;;;8299112;28;20548;-89
2022/10/09 01:20:55;;;;;;;23.02;11.35;;;;;;;;;;8298715;28;20129;-88
2022/10/09 01:25:06;;;;;;;27.88;10.82;;;;;;;;;;8298514;28;20100;-88
2022/10/09 01:29:12;;;;;;;27.05;11.55;;;;;;;;;;8298426;28;20049;-89
2022/10/09 01:33:16;;;;;;;34.05;14.18;;;;;;;;;;8298356;28;20100;-89
2022/10/09 01:37:21;;;;;;;34.80;13.27;;;;;;;;;;8298138;28;20077;-89
2022/10/09 01:41:24;;;;;;;38.28;12.68;;;;;;;;;;8298031;28;20393;-89
2022/10/09 01:45:38;;;;;;;36.83;12.75;;;;;;;;;;8301697;28;20485;-87
2022/10/09 01:49:44;;;;;;;29.75;12.68;;;;;;;;;;8304296;28;20048;-88
2022/10/09 01:53:48;;;;;;;34.47;13.05;;;;;;;;;;8302041;28;20077;-89
2022/10/09 01:57:56;;;;;;;33.30;12.98;;;;;;;;;;8297459;28;20052;-89
2022/10/09 02:02:00;;;;;;;27.63;11.88;;;;;;;;;;8298509;28;20080;-89
2022/10/09 02:06:05;;;;;;;25.67;10.90;;;;;;;;;;8309695;28;20100;-89
2022/10/09 02:10:09;;;;;;;19.83;10.15;;;;;;;;;;8297704;28;20393;-89
2022/10/09 02:14:12;;;;;;;16.58;9.30;;;;;;;;;;8297417;28;20477;-88
2022/10/09 02:18:23;;;;;;;27.02;11.27;;;;;;;;;;8297043;28;20124;-89
2022/10/09 02:22:28;;;;;;;25.57;11.10;;;;;;;;;;8297200;28;20049;-88
2022/10/09 02:26:31;;;;;;;23.77;11.02;;;;;;;;;;8297294;28;20485;-88
2022/10/09 02:30:41;;;;;;;34.95;11.23;;;;;;;;;;8297034;28;20042;-90
2022/10/09 02:34:45;;;;;;;20.83;10.07;;;;;;;;;;8296861;28;20122;-89
2022/10/09 02:38:48;;;;;;;19.48;10.70;;;;;;;;;;8296838;28;20049;-90
2022/10/09 02:42:50;;;;;;;19.83;10.40;;;;;;;;;;8296747;28;20045;-89
2022/10/09 02:46:53;;;;;;;27.48;11.75;;;;;;;;;;8296802;28;20041;-89
2022/10/09 02:50:57;;;;;;;20.33;10.77;;;;;;;;;;8296716;28;20132;-89
2022/10/09 02:54:59;;;;;;;24.67;11.02;;;;;;;;;;8300273;28;20042;-90
2022/10/09 02:59:02;;;;;;;18.90;9.40;;;;;;;;;;8306360;28;20132;-89
2022/10/09 03:03:04;;;;;;;17.30;8.90;;;;;;;;;;8306687;28;20496;-89
2022/10/09 03:07:08;;;;;;;19.40;7.88;;;;;;;;;;8300061;28;20076;-89
2022/10/09 03:11:13;;;;;;;14.63;8.60;;;;;;;;;;8296647;28;20049;-87
2022/10/09 03:15:16;;;;;;;15.70;7.68;;;;;;;;;;8298837;28;20050;-89
2022/10/09 03:19:18;;;;;;;14.68;7.78;;;;;;;;;;8302632;28;20109;-91
2022/10/09 03:23:22;;;;;;;16.55;8.20;;;;;;;;;;8302420;28;20088;-91
2022/10/09 03:27:24;;;;;;;24.08;12.32;;;;;;;;;;8302511;28;20049;-89
2022/10/09 03:31:27;;;;;;;11.57;7.38;;;;;;;;;;8302473;28;20057;-90
2022/10/09 03:35:30;;;;;;;20.40;10.45;;;;;;;;;;8302244;28;20057;-88
2022/10/09 03:39:33;;;;;;;16.35;8.95;;;;;;;;;;8302277;28;20074;-90
2022/10/09 03:43:36;;;;;;;24.95;10.20;;;;;;;;;;8302074;28;20400;-90
2022/10/09 03:47:38;;;;;;;23.98;11.82;;;;;;;;;;8301963;28;20459;-90
2022/10/09 03:51:41;;;;;;;29.85;12.30;;;;;;;;;;8301800;28;20046;-87
2022/10/09 03:55:44;;;;;;;27.85;15.73;;;;;;;;;;8301418;28;20049;-90
2022/10/09 03:59:47;;;;;;;24.98;13.45;;;;;;;;;;8301309;28;20058;-90
2022/10/09 04:03:49;;;;;;;24.23;13.45;;;;;;;;;;8315650;28;20124;-89
2022/10/09 04:07:51;;;;;;;22.73;14.15;;;;;;;;;;8309008;28;20041;-90
2022/10/09 04:11:55;;;;;;;23.65;14.02;;;;;;;;;;8307550;28;20155;-90
2022/10/09 04:15:57;;;;;;;25.23;16.15;;;;;;;;;;8301011;28;20045;-87
2022/10/09 04:20:00;;;;;;;25.88;15.02;;;;;;;;;;8301620;28;20045;-90
2022/10/09 04:24:02;;;;;;;24.48;9.98;;;;;;;;;;8300688;28;20069;-90
2022/10/09 04:28:06;;;;;;;18.83;11.35;;;;;;;;;;8300760;28;20072;-91
2022/10/09 04:32:09;;;;;;;17.77;10.43;;;;;;;;;;8300753;28;20057;-89
2022/10/09 04:36:11;;;;;;;18.42;9.70;;;;;;;;;;8300245;28;20069;-91
2022/10/09 04:40:13;;;;;;;19.27;10.75;;;;;;;;;;8300713;28;20053;-90
2022/10/09 04:44:18;;;;;;;19.38;10.23;;;;;;;;;;8301052;28;20124;-89
2022/10/09 04:48:20;;;;;;;20.17;11.10;;;;;;;;;;8300856;28;20555;-90
2022/10/09 04:52:22;;;;;;;19.55;10.93;;;;;;;;;;8300789;28;20050;-89
2022/10/09 04:56:25;;;;;;;15.95;10.35;;;;;;;;;;8300057;28;20508;-91
2022/10/09 05:00:29;;;;;;;17.90;11.90;;;;;;;;;;8320444;28;20085;-91
2022/10/09 05:04:31;;;;;;;22.40;11.60;;;;;;;;;;8314615;28;20448;-91
2022/10/09 05:08:34;;;;;;;28.83;13.38;;;;;;;;;;8300397;28;20096;-87
2022/10/09 05:12:37;;;;;;;27.05;12.35;;;;;;;;;;8300196;28;20555;-91
2022/10/09 05:16:41;;;;;;;22.58;11.82;;;;;;;;;;8299801;28;20068;-90
2022/10/09 05:21:01;;;;;;;19.77;11.55;;;;;;;;;;8300945;28;20053;-90
2022/10/09 05:25:05;;;;;;;21.92;10.50;;;;;;;;;;8306755;28;20064;-88
2022/10/09 05:29:11;;;;;;;19.60;10.77;;;;;;;;;;8315655;28;20073;-93
2022/10/09 05:33:18;;;;;;;14.82;8.82;;;;;;;;;;8306929;28;20049;-89
2022/10/09 05:37:27;;;;;;;20.02;10.23;;;;;;;;;;8294596;28;20077;-91
2022/10/09 05:41:29;;;;;;;19.70;11.00;;;;;;;;;;8333795;28;20053;-90
2022/10/09 05:45:32;;;;;;;18.65;11.25;;;;;;;;;;8315894;28;20409;-88
2022/10/09 05:49:36;;;;;;;19.73;10.68;;;;;;;;;;8320321;28;20053;-88
2022/10/09 05:53:39;;;;;;;18.52;9.75;;;;;;;;;;8311489;28;20139;-87
2022/10/09 05:57:41;;;;;;;19.90;9.88;;;;;;;;;;8305810;28;20072;-89
2022/10/09 06:01:47;;;;;;;19.30;10.10;;;;;;;;;;8321861;28;20056;-89
2022/10/09 06:05:50;;;;;;;21.25;11.00;;;;;;;;;;8307413;28;20075;-90
2022/10/09 06:09:53;;;;;;;17.33;10.48;;;;;;;;;;8313153;28;20480;-89
2022/10/09 06:13:56;;;;;;;20.50;9.40;;;;;;;;;;8306684;28;20073;-88
2022/10/09 06:17:58;;;;;;;20.85;9.93;;;;;;;;;;8309862;28;20038;-91
2022/10/09 06:22:02;;;;;;;17.13;9.57;;;;;;;;;;8312306;28;20485;-93
2022/10/09 06:26:07;;;;;;;19.48;7.78;;;;;;;;;;8314335;28;20041;-92
2022/10/09 06:30:10;;;;;;;14.52;8.52;;;;;;;;;;8333184;28;20041;-91
2022/10/09 06:34:13;;;;;;;19.60;8.75;;;;;;;;;;8315089;28;20042;-90
2022/10/09 06:38:42;;;;;;;13.02;8.30;;;;;;;;;;8323407;28;20072;-88
2022/10/09 07:02:02;;;;;;;16.35;8.55;;;;;;;;;;8571187;23;20053;-91
2022/10/09 07:06:13;;;;;;;15.98;7.05;;;;;;;;;;8322387;28;20033;-91
2022/10/09 07:10:36;;;;;;;14.23;6.95;;;;;;;;;;8334854;28;20049;-91
2022/10/09 07:15:07;;;;;;;13.65;6.93;;;;;;;;;;8285994;23;20077;-89
2022/10/09 07:19:16;;;;;;;16.88;6.97;;;;;;;;;;8253752;28;20061;-94
2022/10/09 07:23:28;;;;;;;13.45;6.88;;;;;;;;;;8235053;28;20054;-93
2022/10/09 07:27:59;;;;;;;16.88;8.40;;;;;;;;;;8242283;28;20042;-93
2022/10/09 07:32:09;;;;;;;13.75;8.57;;;;;;;;;;8268557;28;20049;-94
2022/10/09 07:36:22;;;;;;;9.95;6.47;;;;;;;;;;8259525;28;20042;-90
2022/10/09 07:40:59;;;;;;;10.88;7.35;;;;;;;;;;8281567;23;20459;-90
2022/10/09 07:45:02;;;;;;;10.82;6.75;;;;;;;;;;8317765;28;20049;-89
2022/10/09 07:49:09;;;;;;;12.82;6.50;;;;;;;;;;8313011;28;20041;-92
2022/10/09 07:53:24;;;;;;;12.43;6.90;;;;;;;;;;8416692;23;20063;-91
2022/10/09 07:57:26;;;;;;;9.85;6.05;;;;;;;;;;8220656;28;20529;-90
2022/10/09 08:02:00;;;;;;;14.77;7.25;;;;;;;;;;8186113;28;20062;-90
2022/10/09 08:06:23;;;;;;;8.95;6.50;;;;;;;;;;8223735;28;20061;-92
2022/10/09 08:15:49;;;;;;;19.60;7.65;;;;;;;;;;8203499;23;20066;-88
2022/10/09 08:19:51;;;;;;;12.65;7.80;;;;;;;;;;8301962;28;20049;-89
2022/10/09 08:24:15;;;;;;;11.65;6.80;;;;;;;;;;8287378;28;20046;-89
2022/10/09 08:28:47;;;;;;;12.07;6.40;;;;;;;;;;8278405;28;20441;-88
2022/10/09 08:33:13;;;;;;;11.65;6.63;;;;;;;;;;8323100;28;20049;-88
2022/10/09 08:37:28;;;;;;;14.85;6.55;;;;;;;;;;8279025;28;20053;-92
2022/10/09 08:51:29;;;;;;;13.32;5.22;;;;;;;;;;8295308;28;20140;-92
2022/10/09 08:56:02;;;;;;;9.35;4.78;;;;;;;;;;8316742;23;20049;-90
2022/10/09 09:00:21;;;;;;;;;;;;;;;;;;8298852;28;20049;-89
2022/10/09 09:15:12;;;;;;;8.90;4.50;;;;;;;;;;8296252;23;20096;-89
2022/10/09 09:19:34;;;;;;;8.32;4.55;;;;;;;;;;8313739;28;20041;-90
2022/10/09 09:23:40;;;;;;;7.18;4.25;;;;;;;;;;8320716;28;20053;-91
2022/10/09 09:27:44;;;;;;;8.55;3.70;;;;;;;;;;8317320;28;20046;-90
2022/10/09 09:31:54;;;;;;;9.27;4.32;;;;;;;;;;8310622;28;20045;-92
2022/10/09 09:36:23;;;;;;;10.05;4.28;;;;;;;;;;8314411;28;20041;-90
2022/10/09 09:40:33;;;;;;;9.13;3.80;;;;;;;;;;8292531;28;20136;-91
2022/10/09 09:44:38;;;;;;;7.15;3.65;;;;;;;;;;8284220;28;20107;-90
2022/10/09 09:48:44;;;;;;;9.25;3.78;;;;;;;;;;8305298;28;20116;-92
2022/10/09 09:52:47;;;;;;;5.75;3.53;;;;;;;;;;8308400;28;20052;-91
2022/10/09 09:56:52;;;;;;;7.55;3.90;;;;;;;;;;8306825;28;20049;-91
2022/10/09 10:00:56;;;;;;;12.93;5.28;;;;;;;;;;8309362;28;20501;-91
2022/10/09 10:05:09;;;;;;;7.93;3.42;;;;;;;;;;8307131;28;20065;-91
2022/10/09 10:09:16;;;;;;;6.72;3.63;;;;;;;;;;8311190;28;20060;-90
2022/10/09 10:13:21;;;;;;;9.15;4.25;;;;;;;;;;8304421;28;20067;-88
2022/10/09 10:17:29;;;;;;;7.10;3.45;;;;;;;;;;8296830;28;20064;-90
2022/10/09 10:21:40;;;;;;;8.40;3.90;;;;;;;;;;8304450;28;20045;-91
2022/10/09 10:25:42;;;;;;;14.65;4.30;;;;;;;;;;8305096;28;20046;-90
2022/10/09 10:29:47;;;;;;;12.88;4.30;;;;;;;;;;8302840;28;20050;-89
2022/10/09 10:33:55;;;;;;;9.88;4.38;;;;;;;;;;8317239;28;20064;-90
2022/10/09 10:38:05;;;;;;;7.40;3.38;;;;;;;;;;8324064;28;20049;-90
2022/10/09 10:42:15;;;;;;;5.83;3.10;;;;;;;;;;8310996;28;20492;-90
2022/10/09 10:46:25;;;;;;;11.23;3.60;;;;;;;;;;8301771;28;20125;-89
2022/10/09 10:50:36;;;;;;;10.33;3.63;;;;;;;;;;8305142;28;20048;-89
2022/10/09 10:54:42;;;;;;;7.03;3.53;;;;;;;;;;8306664;28;20307;-90
2022/10/09 10:58:54;;;;;;;11.88;3.60;;;;;;;;;;8293640;28;20204;-88
2022/10/09 11:03:10;;;;;;;5.07;2.90;;;;;;;;;;8301627;28;20543;-89
2022/10/09 11:07:25;;;;;;;7.75;3.13;;;;;;;;;;8306120;28;20138;-89
2022/10/09 11:11:39;;;;;;;7.13;2.90;;;;;;;;;;8305314;28;20585;-89
2022/10/09 11:15:51;;;;;;;4.85;2.60;;;;;;;;;;8304694;28;20045;-89
2022/10/09 11:20:19;;;;;;;6.13;3.20;;;;;;;;;;8295034;28;20509;-88
2022/10/09 11:24:40;;;;;;;10.75;3.47;;;;;;;;;;8303887;28;20524;-89
2022/10/09 11:28:47;;;;;;;8.67;3.23;;;;;;;;;;8299117;28;20100;-90
2022/10/09 11:33:01;;;;;;;7.80;3.00;;;;;;;;;;8311943;28;20404;-90
2022/10/09 11:37:09;;;;;;;6.82;3.17;;;;;;;;;;8327676;28;20076;-90
2022/10/09 11:41:12;;;;;;;8.27;3.25;;;;;;;;;;8303122;28;20041;-90
2022/10/09 11:45:28;;;;;;;6.70;3.13;;;;;;;;;;8302356;28;20050;-90
2022/10/09 11:49:39;;;;;;;5.00;2.85;;;;;;;;;;8302278;28;20534;-90
2022/10/09 11:53:44;;;;;;;5.43;3.20;;;;;;;;;;8316329;28;20041;-90
2022/10/09 11:57:47;;;;;;;6.32;2.55;;;;;;;;;;8302312;28;20103;-91
2022/10/09 12:01:51;;;;;;;4.25;2.95;;;;;;;;;;8302030;28;20099;-91
2022/10/09 12:06:04;;;;;;;4.90;3.13;;;;;;;;;;8302105;28;20535;-91
2022/10/09 12:10:20;;;;;;;7.28;3.42;;;;;;;;;;8301903;28;20045;-91
2022/10/09 12:14:26;;;;;;;5.38;3.25;;;;;;;;;;8301685;28;20579;-91
2022/10/09 12:18:34;;;;;;;7.35;4.30;;;;;;;;;;8301500;28;20096;-90
2022/10/09 12:22:41;;;;;;;7.70;4.45;;;;;;;;;;8301333;28;20121;-90
2022/10/09 12:26:45;;;;;;;6.40;3.13;;;;;;;;;;8301375;28;20042;-90
2022/10/09 12:30:49;;;;;;;8.40;2.60;;;;;;;;;;8314884;28;20385;-90
2022/10/09 12:34:54;;;;;;;6.05;2.70;;;;;;;;;;8300978;28;20080;-89
2022/10/09 12:38:56;;;;;;;6.18;2.60;;;;;;;;;;8311642;28;20042;-90
2022/10/09 12:43:00;;;;;;;6.47;3.22;;;;;;;;;;8302702;28;20065;-90
2022/10/09 12:47:06;;;;;;;4.22;2.65;;;;;;;;;;8300166;28;20524;-91
2022/10/09 12:51:17;;;;;;;7.47;2.97;;;;;;;;;;8300644;28;20122;-90
2022/10/09 12:55:25;;;;;;;7.15;3.90;;;;;;;;;;8300376;28;20073;-90
2022/10/09 12:59:29;;;;;;;8.95;4.20;;;;;;;;;;8300000;28;20100;-90
2022/10/09 13:03:35;;;;;;;7.20;3.83;;;;;;;;;;8313926;28;20048;-90
2022/10/09 13:07:40;;;;;;;5.00;3.22;;;;;;;;;;8300789;28;20100;-90
2022/10/09 13:11:44;;;;;;;4.72;3.03;;;;;;;;;;8303378;28;20046;-91
2022/10/09 13:15:59;;;;;;;10.52;3.72;;;;;;;;;;8321098;28;20081;-90
2022/10/09 13:20:04;;;;;;;7.45;3.33;;;;;;;;;;8321944;28;20046;-90
2022/10/09 13:24:12;;;;;;;5.72;3.28;;;;;;;;;;8329875;28;20103;-90
2022/10/09 13:28:20;;;;;;;7.03;3.42;;;;;;;;;;8300481;28;20108;-91
2022/10/09 13:32:24;;;;;;;6.32;4.03;;;;;;;;;;8324045;28;20473;-89
2022/10/09 13:36:26;;;;;;;7.70;4.28;;;;;;;;;;8328196;28;20072;-91
2022/10/09 13:40:30;;;;;;;8.68;4.90;;;;;;;;;;8326135;28;20069;-91
2022/10/09 13:44:32;;;;;;;8.93;5.18;;;;;;;;;;8310662;28;20056;-91
2022/10/09 13:48:36;;;;;;;12.07;6.53;;;;;;;;;;8304939;28;20108;-92
2022/10/09 13:52:40;;;;;;;9.90;5.20;;;;;;;;;;8313614;28;20464;-91
2022/10/09 13:56:46;;;;;;;9.02;3.75;;;;;;;;;;8301821;28;20045;-90
2022/10/09 14:00:50;;;;;;;7.43;4.32;;;;;;;;;;8311784;28;20436;-90
2022/10/09 14:04:52;;;;;;;6.60;3.70;;;;;;;;;;8294026;28;20132;-91
2022/10/09 14:08:56;;;;;;;4.53;2.90;;;;;;;;;;8305207;28;20045;-92
2022/10/09 14:13:00;;;;;;;4.60;2.70;;;;;;;;;;8315495;28;20041;-92
2022/10/09 14:17:02;;;;;;;5.05;2.78;;;;;;;;;;8338652;28;20061;-88
2022/10/09 14:21:09;;;;;;;8.93;3.08;;;;;;;;;;8322593;28;20081;-88
2022/10/09 14:25:12;;;;;;;17.05;6.18;;;;;;;;;;8305257;28;20407;-88
2022/10/09 14:29:16;;;;;;;7.63;2.97;;;;;;;;;;8314397;28;20053;-89
2022/10/09 14:33:18;;;;;;;11.90;5.15;;;;;;;;;;8311075;28;20049;-89
2022/10/09 14:37:21;;;;;;;7.43;3.10;;;;;;;;;;8313941;28;20069;-90
2022/10/09 14:41:23;;;;;;;7.85;3.17;;;;;;;;;;8314703;28;20049;-90
2022/10/09 14:45:27;;;;;;;6.00;2.70;;;;;;;;;;8328998;28;20394;-88
2022/10/09 14:49:30;;;;;;;6.65;3.22;;;;;;;;;;8315179;28;20637;-89
2022/10/09 14:53:33;;;;;;;6.20;3.60;;;;;;;;;;8308178;28;20076;-90
2022/10/09 14:57:36;;;;;;;7.57;3.60;;;;;;;;;;8305764;28;20053;-89
2022/10/09 15:01:40;;;;;;;8.05;3.85;;;;;;;;;;8315418;28;20054;-90
2022/10/09 15:05:42;;;;;;;7.45;4.00;;;;;;;;;;8301675;28;20045;-89
2022/10/09 15:09:45;;;;;;;7.20;3.30;;;;;;;;;;8301945;28;20041;-89
2022/10/09 15:13:47;;;;;;;7.35;3.17;;;;;;;;;;8314823;28;20060;-90
2022/10/09 15:17:51;;;;;;;9.05;3.80;;;;;;;;;;8316400;28;20117;-89
2022/10/09 15:21:53;;;;;;;7.38;3.38;;;;;;;;;;8306161;28;20052;-89
2022/10/09 15:25:58;;;;;;;8.43;4.47;;;;;;;;;;8304541;28;20052;-90
2022/10/09 15:30:01;;;;;;;7.85;4.03;;;;;;;;;;8314567;28;20042;-90
2022/10/09 15:34:06;;;;;;;10.52;5.28;;;;;;;;;;8316720;28;20053;-91
2022/10/09 15:38:14;;;;;;;11.85;5.70;;;;;;;;;;8305550;28;20069;-90
2022/10/09 15:42:16;;;;;;;13.50;7.28;;;;;;;;;;8310476;28;20111;-90
2022/10/09 15:46:19;;;;;;;15.65;7.95;;;;;;;;;;8317862;28;20049;-90
2022/10/09 15:50:23;;;;;;;21.60;10.98;;;;;;;;;;8313614;28;20072;-91
2022/10/09 15:54:26;;;;;;;20.50;9.40;;;;;;;;;;8304492;28;20056;-89
2022/10/09 15:58:29;;;;;;;16.30;8.77;;;;;;;;;;8303466;28;20041;-91
2022/10/09 16:02:31;;;;;;;17.00;7.90;;;;;;;;;;8319446;28;20064;-90
2022/10/09 16:06:36;;;;;;;23.58;9.90;;;;;;;;;;8319492;28;20045;-90
2022/10/09 16:10:41;;;;;;;31.25;18.83;;;;;;;;;;8311559;28;20056;-91
2022/10/09 16:14:44;;;;;;;33.17;18.80;;;;;;;;;;8311372;28;20065;-89
2022/10/09 16:18:47;;;;;;;37.20;20.25;;;;;;;;;;8302492;28;20049;-90
2022/10/09 16:22:54;;;;;;;34.72;20.30;;;;;;;;;;8307946;28;20045;-89
2022/10/09 16:26:57;;;;;;;29.25;17.23;;;;;;;;;;8310729;28;20125;-90
2022/10/09 16:31:00;;;;;;;23.38;12.55;;;;;;;;;;8306553;28;20116;-92
2022/10/09 16:35:03;;;;;;;31.50;18.50;;;;;;;;;;8307091;28;20049;-89
2022/10/09 16:39:07;;;;;;;25.98;13.90;;;;;;;;;;8303779;28;20056;-88
2022/10/09 16:43:10;;;;;;;15.45;9.57;;;;;;;;;;8314637;28;20053;-89
2022/10/09 16:47:13;;;;;;;16.58;8.13;;;;;;;;;;8318136;28;20383;-91
2022/10/09 16:51:18;;;;;;;21.10;8.75;;;;;;;;;;8318794;28;20041;-89
2022/10/09 16:55:22;;;;;;;30.60;14.68;;;;;;;;;;8311225;28;20061;-91
2022/10/09 16:59:25;;;;;;;30.15;15.35;;;;;;;;;;8315402;28;20044;-90
2022/10/09 17:03:27;;;;;;;35.03;16.38;;;;;;;;;;8312798;28;20755;-89
2022/10/09 17:07:31;;;;;;;41.72;16.35;;;;;;;;;;8327067;28;20045;-91
2022/10/09 17:11:34;;;;;;;34.88;16.38;;;;;;;;;;8315192;28;20072;-92
2022/10/09 17:15:40;;;;;;;37.58;17.52;;;;;;;;;;8315340;28;20063;-89
2022/10/09 17:19:44;;;;;;;23.70;12.35;;;;;;;;;;8328927;28;20125;-91
2022/10/09 17:23:53;;;;;;;22.27;9.50;;;;;;;;;;8324266;28;20041;-89
2022/10/09 17:27:57;;;;;;;24.55;12.13;;;;;;;;;;8309214;28;20052;-89
2022/10/09 17:32:01;;;;;;;18.30;7.50;;;;;;;;;;8311317;28;21346;-89
2022/10/09 17:36:04;;;;;;;17.25;7.45;;;;;;;;;;8310994;28;20561;-91
2022/10/09 17:40:08;;;;;;;16.17;6.78;;;;;;;;;;8316876;28;20132;-88
2022/10/09 17:44:13;;;;;;;15.15;7.07;;;;;;;;;;8321241;28;20034;-88
2022/10/09 17:48:16;;;;;;;15.48;8.10;;;;;;;;;;8305954;28;20560;-88
2022/10/09 17:52:19;;;;;;;16.85;7.20;;;;;;;;;;8297541;28;20413;-90
2022/10/09 17:56:22;;;;;;;12.18;6.70;;;;;;;;;;8317644;28;20048;-89
2022/10/09 18:00:25;;;;;;;19.42;9.07;;;;;;;;;;8321633;28;20057;-90
2022/10/09 18:04:32;;;;;;;12.43;6.38;;;;;;;;;;8315987;28;20072;-91
2022/10/09 18:08:38;;;;;;;26.85;11.73;;;;;;;;;;8320209;28;20049;-89
2022/10/09 18:12:49;;;;;;;36.63;18.83;;;;;;;;;;8326862;28;20041;-89
2022/10/09 18:16:55;;;;;;;25.67;11.98;;;;;;;;;;8314966;28;20045;-90
2022/10/09 18:21:05;;;;;;;26.23;14.02;;;;;;;;;;8306413;28;20053;-89
2022/10/09 18:25:09;;;;;;;20.10;9.63;;;;;;;;;;8305135;28;20053;-90
2022/10/09 18:29:12;;;;;;;66.43;28.23;;;;;;;;;;8301736;28;20049;-89
2022/10/09 18:33:17;;;;;;;44.78;18.45;;;;;;;;;;8296729;28;20497;-89
2022/10/09 18:37:20;;;;;;;116.93;58.05;;;;;;;;;;8311094;28;20050;-88
2022/10/09 18:41:24;;;;;;;43.85;23.70;;;;;;;;;;8297042;28;20077;-89
2022/10/09 18:45:27;;;;;;;48.70;22.45;;;;;;;;;;8301482;28;20595;-89
2022/10/09 18:49:32;;;;;;;74.70;30.48;;;;;;;;;;8307872;28;20096;-89
2022/10/09 18:53:38;;;;;;;27.92;15.60;;;;;;;;;;8308132;28;20041;-88
2022/10/09 18:57:41;;;;;;;29.73;13.77;;;;;;;;;;8307815;28;20450;-89
2022/10/09 19:01:45;;;;;;;34.33;13.40;;;;;;;;;;8307512;28;20505;-88
2022/10/09 19:05:50;;;;;;;21.05;11.63;;;;;;;;;;8321410;28;20041;-88
2022/10/09 19:09:53;;;;;;;19.88;10.82;;;;;;;;;;8307524;28;20046;-88
2022/10/09 19:13:58;;;;;;;20.15;10.88;;;;;;;;;;8307190;28;20116;-89
2022/10/09 19:18:01;;;;;;;28.45;13.00;;;;;;;;;;8307341;28;20045;-87
2022/10/09 19:22:05;;;;;;;90.25;23.15;;;;;;;;;;8307284;28;20050;-89
2022/10/09 19:26:08;;;;;;;48.97;19.10;;;;;;;;;;8307173;28;20045;-88
2022/10/09 19:30:13;;;;;;;58.65;22.80;;;;;;;;;;8320968;28;20153;-88
2022/10/09 19:34:15;;;;;;;35.97;16.52;;;;;;;;;;8306980;28;20073;-89
2022/10/09 19:38:21;;;;;;;39.63;18.05;;;;;;;;;;8307059;28;20053;-88
2022/10/09 19:42:24;;;;;;;40.28;18.55;;;;;;;;;;8306900;28;20608;-88
2022/10/09 19:46:27;;;;;;;46.70;20.27;;;;;;;;;;8310058;28;20045;-88
2022/10/09 19:50:31;;;;;;;47.30;20.92;;;;;;;;;;8317047;28;20050;-88
2022/10/09 19:54:36;;;;;;;42.33;21.55;;;;;;;;;;8309289;28;20107;-86
2022/10/09 19:58:40;;;;;;;36.42;13.57;;;;;;;;;;8301791;28;20052;-87
2022/10/09 20:02:43;;;;;;;32.63;11.50;;;;;;;;;;8308582;28;20511;-88
2022/10/09 20:06:47;;;;;;;29.00;12.25;;;;;;;;;;8307795;28;20052;-86
2022/10/09 20:10:51;;;;;;;30.10;15.07;;;;;;;;;;8301303;28;20042;-88
2022/10/09 20:14:57;;;;;;;30.38;16.50;;;;;;;;;;8300924;28;20069;-88
2022/10/09 20:19:01;;;;;;;49.95;17.33;;;;;;;;;;8300874;28;20046;-88
2022/10/09 20:23:04;;;;;;;42.03;15.25;;;;;;;;;;8300733;28;20092;-88
2022/10/09 20:27:08;;;;;;;27.17;11.38;;;;;;;;;;8300829;28;20054;-87
2022/10/09 20:31:13;;;;;;;20.00;10.20;;;;;;;;;;8300370;28;20041;-88
2022/10/09 20:35:16;;;;;;;17.98;10.25;;;;;;;;;;8300990;28;20378;-87
2022/10/09 20:39:20;;;;;;;26.02;10.57;;;;;;;;;;8300346;28;20056;-90
2022/10/09 20:43:24;;;;;;;19.60;9.38;;;;;;;;;;8300347;28;20512;-89
2022/10/09 20:47:26;;;;;;;17.33;8.40;;;;;;;;;;8300138;28;20080;-88
2022/10/09 20:51:29;;;;;;;24.25;9.23;;;;;;;;;;8299894;28;20062;-89
2022/10/09 20:55:32;;;;;;;19.98;8.82;;;;;;;;;;8296567;28;20401;-88
2022/10/09 20:59:36;;;;;;;19.35;9.75;;;;;;;;;;8313588;28;20410;-89
2022/10/09 21:03:39;;;;;;;26.48;11.35;;;;;;;;;;8313477;28;20071;-88
2022/10/09 21:07:42;;;;;;;27.45;10.85;;;;;;;;;;8305082;28;20404;-87
2022/10/09 21:11:45;;;;;;;23.67;11.90;;;;;;;;;;8304132;28;20052;-89
2022/10/09 21:15:50;;;;;;;22.63;9.48;;;;;;;;;;8301204;28;20505;-89
2022/10/09 21:19:54;;;;;;;24.95;9.95;;;;;;;;;;8307248;28;20052;-88
2022/10/09 21:24:05;;;;;;;19.42;9.10;;;;;;;;;;8307069;28;20046;-89
2022/10/09 21:28:08;;;;;;;17.73;7.63;;;;;;;;;;8306061;28;20045;-90
2022/10/09 21:32:11;;;;;;;19.83;8.30;;;;;;;;;;8324048;28;20116;-88
2022/10/09 21:36:22;;;;;;;17.05;8.75;;;;;;;;;;8318145;28;20037;-88
2022/10/09 21:40:25;;;;;;;19.83;9.48;;;;;;;;;;8314293;28;20042;-89
2022/10/09 21:44:28;;;;;;;19.67;9.98;;;;;;;;;;8299652;28;20042;-87
2022/10/09 21:48:33;;;;;;;19.33;8.77;;;;;;;;;;8315087;28;20048;-88
2022/10/09 21:52:36;;;;;;;22.65;8.73;;;;;;;;;;8319366;28;20049;-89
2022/10/09 21:56:38;;;;;;;19.30;8.90;;;;;;;;;;8316420;28;20053;-87
2022/10/09 22:00:43;;;;;;;20.02;9.02;;;;;;;;;;8300689;28;20046;-90
2022/10/09 22:04:47;;;;;;;17.73;8.90;;;;;;;;;;8297495;28;20049;-89
2022/10/09 22:08:50;;;;;;;21.60;8.77;;;;;;;;;;8322683;28;20037;-88
2022/10/09 22:12:52;;;;;;;24.33;9.25;;;;;;;;;;8305344;28;20048;-90
2022/10/09 22:16:55;;;;;;;17.92;8.10;;;;;;;;;;8307822;28;20547;-88
2022/10/09 22:21:04;;;;;;;22.70;8.80;;;;;;;;;;8322113;28;20411;-89
2022/10/09 22:25:08;;;;;;;23.48;10.20;;;;;;;;;;8316196;28;20045;-88
2022/10/09 22:29:10;;;;;;;18.75;8.70;;;;;;;;;;8324279;28;20041;-89
2022/10/09 22:33:13;;;;;;;15.18;7.90;;;;;;;;;;8322656;28;20122;-86
2022/10/09 22:37:17;;;;;;;16.45;7.75;;;;;;;;;;8314270;28;20037;-88
2022/10/09 22:41:21;;;;;;;24.05;8.25;;;;;;;;;;8320759;28;20049;-88
2022/10/09 22:45:23;;;;;;;19.80;8.90;;;;;;;;;;8310561;28;20045;-88
2022/10/09 22:49:26;;;;;;;18.58;9.32;;;;;;;;;;8304561;28;20041;-86
2022/10/09 22:53:30;;;;;;;18.98;9.07;;;;;;;;;;8324055;28;20058;-87
2022/10/09 22:57:32;;;;;;;23.65;8.85;;;;;;;;;;8300808;28;20536;-86
2022/10/09 23:01:38;;;;;;;19.10;9.35;;;;;;;;;;8308233;28;20065;-85
2022/10/09 23:05:40;;;;;;;18.60;8.10;;;;;;;;;;8298079;28;20041;-86
2022/10/09 23:09:44;;;;;;;20.60;8.63;;;;;;;;;;8305258;28;20536;-88
2022/10/09 23:13:47;;;;;;;19.95;8.52;;;;;;;;;;8300947;28;20097;-88
2022/10/09 23:17:49;;;;;;;21.77;8.32;;;;;;;;;;8296587;28;20065;-86
2022/10/09 23:21:52;;;;;;;22.52;8.85;;;;;;;;;;8296431;28;20049;-89
2022/10/09 23:25:56;;;;;;;19.67;9.68;;;;;;;;;;8298315;28;20066;-89
2022/10/09 23:29:58;;;;;;;25.95;10.60;;;;;;;;;;8307571;28;20053;-88
2022/10/09 23:34:00;;;;;;;;;;;;;;;;;;8301472;28;20046;-88
2022/10/09 23:38:03;;;;;;;18.35;8.50;;;;;;;;;;8302313;28;19922;-88
2022/10/09 23:42:07;;;;;;;19.98;7.75;;;;;;;;;;8302022;28;20052;-88
2022/10/09 23:46:12;;;;;;;18.20;7.88;;;;;;;;;;8315796;28;20053;-87
2022/10/09 23:50:14;;;;;;;19.15;7.80;;;;;;;;;;8301907;28;20046;-89
2022/10/09 23:54:16;;;;;;;23.45;10.43;;;;;;;;;;8301756;28;20054;-88
2022/10/09 23:58:21;;;;;;;30.00;11.05;;;;;;;;;;8315534;28;20061;-87
